Latest Weather Observations for Mardie

IDW60801

Issued at 1:05 pm WST Thursday 24 April 2014 (issued every 30 minutes, with the page automatically refreshed every 10 minutes)

About weather observations | Map of weather stations | Latest weather observations for WA | Other Formats
Station Details ID: 005008 Name: MARDIE Lat: -21.19 Lon: 115.98 Height: 11.0 m
Data from the previous 72 hours. | See also: Recent months at Mardie
Date/Time
WST
Temp
°C
App
Temp
°C
Dew
Point
Rel
Hum
%
Delta-T
°C
Wind Press
QNH
hPa
Press
MSL
hPa
Rain
since 9 am
mm
Dir
 
Spd
km/h
Gust
km/h
Spd
kts
Gust
kts
24/01:00pm 34.0 31.1 12.4 27 12.9 WNW 19 28 10 15 1008.7 1008.7 0.0
24/12:30pm 35.4 33.7 11.1 23 14.3 WNW 11 19 6 10 1009.1 - 0.0
24/12:00pm 34.2 33.1 13.1 28 12.8 W 11 20 6 11 1009.6 1009.6 0.0
24/11:30am 33.8 33.2 12.2 27 12.9 W 7 17 4 9 1010.1 - 0.0
24/11:00am 32.6 32.6 12.3 29 12.0 WSW 4 13 2 7 1010.6 1010.6 0.0
24/10:30am 32.4 33.3 14.1 33 11.1 WSW 2 7 1 4 1010.9 - 0.0
24/10:00am 30.8 31.4 15.2 38 9.6 SSW 6 11 3 6 1011.3 1011.3 0.0
24/09:30am 29.8 30.7 16.2 43 8.5 SW 6 9 3 5 1011.5 - 0.0
24/09:00am 28.5 29.8 17.1 50 7.2 W 6 9 3 5 1011.4 1011.4 0.0
24/08:30am 27.1 29.4 19.4 62 5.0 W 6 9 3 5 1011.3 - 0.0
24/08:00am 25.3 29.0 20.8 76 3.0 W 2 6 1 3 1010.9 1010.9 0.0
24/07:30am 24.1 27.7 19.8 77 2.8 CALM 0 0 0 0 1010.8 - 0.0
24/07:00am 21.2 24.0 18.0 82 2.0 CALM 0 0 0 0 1010.5 1010.5 0.0
24/06:30am 21.3 23.2 17.7 80 2.2 W 4 6 2 3 1010.0 - 0.0
24/06:00am 21.4 23.1 17.2 77 2.6 W 4 6 2 3 1009.9 1009.9 0.0
24/05:30am 21.5 23.6 17.3 77 2.6 W 2 4 1 2 1009.9 - 0.0
24/05:00am 21.5 22.7 16.9 75 2.8 W 6 7 3 4 1009.6 1009.6 0.0
24/04:30am 21.6 22.9 17.0 75 2.8 W 6 7 3 4 1009.6 - 0.0
24/04:00am 21.6 22.9 16.1 71 3.3 W 4 4 2 2 1009.6 1009.6 0.0
24/03:30am 21.9 23.6 17.1 74 2.9 W 4 4 2 2 1009.7 - 0.0
24/03:00am 22.1 23.7 17.0 73 3.1 W 4 4 2 2 1009.6 1009.6 0.0
24/02:30am 22.6 24.5 17.7 74 3.0 W 4 4 2 2 1009.7 - 0.0
24/02:00am 22.8 25.1 17.7 73 3.2 W 2 4 1 2 1009.8 1009.8 0.0
24/01:30am 22.7 24.7 17.8 74 3.0 W 4 4 2 2 1010.1 - 0.0
24/01:00am 22.6 24.0 17.3 72 3.3 W 6 6 3 3 1010.3 1010.3 0.0
24/12:30am 22.5 23.9 16.5 69 3.7 W 4 6 2 3 1010.5 - 0.0
24/12:00am 23.0 25.1 17.2 70 3.6 W 2 4 1 2 1010.7 1010.7 0.0
 
Date/Time
WST
Temp
°C
App
Temp
°C
Dew
Point
Rel
Hum
%
Delta-T
°C
Wind Press
QNH
hPa
Press
MSL
hPa
Rain
since 9 am
mm
Dir
 
Spd
km/h
Gust
km/h
Spd
kts
Gust
kts
23/11:30pm 23.4 25.6 17.4 69 3.7 W 2 6 1 3 1010.9 - 0.0
23/11:00pm 23.6 26.0 17.1 67 4.0 CALM 0 0 0 0 1011.1 1011.1 0.0
23/10:30pm 24.0 26.1 18.0 69 3.8 W 4 4 2 2 1011.1 - 0.0
23/10:00pm 24.5 26.6 18.0 67 4.1 W 4 6 2 3 1011.3 1011.3 0.0
23/09:30pm 24.9 28.0 18.6 68 4.0 CALM 0 0 0 0 1011.6 - 0.0
23/09:00pm 25.5 29.3 20.1 72 3.5 CALM 0 0 0 0 1011.6 1011.6 0.0
23/08:30pm 25.8 29.6 21.0 75 3.2 W 2 4 1 2 1011.5 - 0.0
23/08:00pm 26.3 29.2 20.6 71 3.7 W 6 7 3 4 1011.5 1011.5 0.0
23/07:30pm 27.1 29.7 20.4 66 4.4 W 7 9 4 5 1011.2 - 0.0
23/07:00pm 27.3 29.0 20.1 64 4.7 W 11 15 6 8 1010.9 1010.9 0.0
23/06:30pm 27.7 28.6 20.0 63 5.0 W 15 19 8 10 1010.6 - 0.0
23/06:00pm 28.3 28.9 19.5 59 5.7 W 15 20 8 11 1010.4 1010.4 0.0
23/05:30pm 29.2 29.0 18.6 52 6.8 WNW 17 22 9 12 1010.0 - 0.0
23/05:00pm 30.1 29.7 18.8 50 7.3 WNW 19 26 10 14 1009.7 1009.7 0.0
23/04:30pm 31.0 29.6 18.0 45 8.3 WNW 22 32 12 17 1009.6 - 0.0
23/04:00pm 31.9 30.0 16.6 39 9.7 WNW 22 28 12 15 1009.3 1009.3 0.0
23/03:30pm 32.6 30.8 16.0 36 10.4 WNW 20 26 11 14 1009.0 - 0.0
23/03:00pm 33.3 31.0 15.8 35 11.0 WNW 22 30 12 16 1009.1 1009.1 0.0
23/02:30pm 33.3 31.2 15.3 34 11.2 WNW 20 26 11 14 1009.1 - 0.0
23/02:00pm 33.9 32.0 15.8 33 11.4 WNW 20 28 11 15 1009.4 1009.4 0.0
23/01:30pm 34.0 31.6 14.5 31 12.0 W 20 28 11 15 1009.8 - 0.0
23/01:00pm 34.0 32.0 15.0 32 11.8 W 19 24 10 13 1010.1 1010.1 0.0
23/12:30pm 34.3 32.4 15.2 31 11.9 WNW 19 24 10 13 1010.4 - 0.0
23/12:00pm 34.5 33.3 9.7 22 14.3 WSW 6 13 3 7 1010.8 1010.8 0.0
23/11:30am 34.7 33.8 10.5 23 14.1 S 6 15 3 8 1011.1 - 0.0
23/11:00am 33.4 31.9 10.7 25 13.2 S 9 19 5 10 1011.6 1011.6 0.0
23/10:30am 32.0 31.2 12.8 31 11.4 S 9 20 5 11 1012.1 - 0.0
23/10:00am 31.3 30.4 13.6 34 10.7 S 11 15 6 8 1012.4 1012.4 0.0
23/09:30am 29.3 29.4 15.4 42 8.5 SSW 9 13 5 7 1012.6 - 0.0
23/09:00am 27.5 28.1 16.8 52 6.7 SSW 9 15 5 8 1012.5 1012.5 0.0
23/08:30am 25.6 27.1 19.0 67 4.2 SSW 9 11 5 6 1012.6 - 0.0
23/08:00am 23.7 26.7 21.2 86 1.6 SW 7 9 4 5 1012.6 1012.6 0.0
23/07:30am 21.4 24.5 19.5 89 1.2 W 2 6 1 3 1012.3 - 0.0
23/07:00am 19.6 21.6 16.1 80 2.1 CALM 0 0 0 0 1012.1 1012.1 0.0
23/06:30am 19.1 20.4 16.1 83 1.8 W 4 4 2 2 1011.7 - 0.0
23/06:00am 20.3 22.6 17.7 85 1.6 W 2 4 1 2 1011.6 1011.6 0.0
23/05:30am 20.2 21.4 17.4 84 1.7 W 7 9 4 5 1011.4 - 0.0
23/05:00am 20.7 21.9 16.9 79 2.3 W 6 6 3 3 1011.3 1011.3 0.0
23/04:30am 20.9 21.5 15.9 73 3.0 W 7 7 4 4 1011.2 - 0.0
23/04:00am 20.8 21.9 14.7 68 3.6 W 2 4 1 2 1011.4 1011.4 0.0
23/03:30am 21.4 23.4 16.1 72 3.2 CALM 0 0 0 0 1011.6 - 0.0
23/03:00am 22.0 24.4 16.9 73 3.1 CALM 0 4 0 2 1011.5 1011.5 0.0
23/02:30am 21.9 23.5 16.8 73 3.1 W 4 4 2 2 1011.7 - 0.0
23/02:00am 22.2 23.8 16.9 72 3.2 W 4 6 2 3 1011.9 1011.9 0.0
23/01:30am 22.5 23.8 17.0 71 3.4 W 6 6 3 3 1012.1 - 0.0
23/01:00am 22.6 23.6 16.4 68 3.8 W 6 6 3 3 1012.4 1012.4 0.0
23/12:30am 23.1 25.5 17.1 69 3.7 CALM 0 0 0 0 1012.6 - 0.0
23/12:00am 23.1 25.3 16.6 67 4.0 CALM 0 0 0 0 1012.8 1012.8 0.0
 
Date/Time
WST
Temp
°C
App
Temp
°C
Dew
Point
Rel
Hum
%
Delta-T
°C
Wind Press
QNH
hPa
Press
MSL
hPa
Rain
since 9 am
mm
Dir
 
Spd
km/h
Gust
km/h
Spd
kts
Gust
kts
22/11:30pm 23.2 25.8 17.4 70 3.6 CALM 0 0 0 0 1012.8 - 0.0
22/11:00pm 23.6 25.3 18.0 71 3.5 W 6 7 3 4 1012.8 1012.8 0.0
22/10:30pm 24.3 27.1 18.0 68 4.0 CALM 0 0 0 0 1012.8 - 0.0
22/10:00pm 24.9 28.2 19.1 70 3.7 CALM 0 0 0 0 1013.0 1013.0 0.0
22/09:30pm 25.4 29.2 20.2 73 3.4 CALM 0 0 0 0 1013.2 - 0.0
22/09:00pm 25.4 28.5 19.5 70 3.8 W 2 4 1 2 1013.0 1013.0 0.0
22/08:30pm 25.9 29.5 19.8 69 4.0 CALM 0 4 0 2 1013.0 - 0.0
22/08:00pm 26.3 29.6 19.9 68 4.2 W 2 4 1 2 1012.6 1012.6 0.0
22/07:30pm 26.9 29.6 20.3 67 4.3 W 6 6 3 3 1012.2 - 0.0
22/07:00pm 27.6 30.4 20.4 65 4.7 WNW 6 7 3 4 1011.8 1011.8 0.0
22/06:30pm 28.2 30.3 20.2 62 5.3 WNW 9 13 5 7 1011.5 - 0.0
22/06:00pm 29.2 30.1 18.3 51 7.0 WNW 11 17 6 9 1011.1 1011.1 0.0
22/05:30pm 30.3 30.5 17.7 46 8.0 NW 13 17 7 9 1010.8 - 0.0
22/05:00pm 31.1 30.4 16.3 41 9.3 WNW 15 19 8 10 1010.6 1010.6 0.0
22/04:30pm 33.3 31.7 13.9 31 11.8 WNW 15 20 8 11 1010.4 - 0.0
22/04:00pm 33.5 31.0 13.5 29 12.1 WNW 19 24 10 13 1010.4 1010.4 0.0
22/03:30pm 34.4 30.7 11.5 25 13.5 W 22 28 12 15 1010.3 - 0.0
22/03:00pm 35.3 31.5 8.9 20 15.0 WNW 19 24 10 13 1010.3 1010.3 0.0
22/02:30pm 35.7 31.2 6.0 16 16.2 WNW 19 24 10 13 1010.4 - 0.0
22/02:00pm 35.3 31.1 8.2 19 15.3 W 20 24 11 13 1010.5 1010.5 0.0
22/01:30pm 35.7 31.9 7.7 18 15.7 W 17 26 9 14 1010.7 - 0.0
22/01:00pm 35.8 32.4 6.1 16 16.2 W 13 20 7 11 1011.0 1011.0 0.0
22/12:30pm 35.0 32.6 8.7 20 14.9 W 11 20 6 11 1011.3 - 0.0
22/12:00pm 34.6 33.1 10.4 23 14.1 WNW 9 19 5 10 1011.7 1011.7 0.0
22/11:30am 34.5 32.8 9.7 22 14.2 WNW 9 17 5 9 1012.1 - 0.0
22/11:00am 33.6 32.1 9.0 22 13.9 WSW 7 13 4 7 1012.4 1012.4 0.0
22/10:30am 32.4 31.7 9.9 25 12.8 SSW 4 9 2 5 1012.7 - 0.0
22/10:00am 31.0 31.4 12.4 32 11.0 S 2 6 1 3 1012.7 1012.7 0.0
22/09:30am 29.3 29.5 13.1 37 9.6 SSW 4 7 2 4 1012.9 - 0.0
22/09:00am 27.0 27.9 14.1 45 7.7 SSW 2 6 1 3 1012.8 1012.8 0.0
22/08:30am 25.4 25.7 14.5 51 6.5 S 6 9 3 5 1012.7 - 0.0
22/08:00am 24.3 24.7 16.3 61 4.9 SSW 9 13 5 7 1012.6 1012.6 0.0
22/07:30am 22.0 23.8 17.4 75 2.8 WSW 4 7 2 4 1012.4 - 0.0
22/07:00am 20.4 22.0 16.8 80 2.2 WSW 4 4 2 2 1012.1 1012.1 0.0
22/06:30am 20.1 21.1 16.3 79 2.3 WSW 6 6 3 3 1011.9 - 0.0
22/06:00am 20.6 21.1 16.6 78 2.4 W 9 9 5 5 1011.9 1011.9 0.0
22/05:30am 21.0 22.0 16.8 77 2.6 W 7 9 4 5 1011.9 - 0.0
22/05:00am 21.8 22.6 17.2 75 2.8 WSW 9 11 5 6 1011.7 1011.7 0.0
22/04:30am 22.3 23.6 17.2 73 3.1 WSW 6 7 3 4 1011.6 - 0.0
22/04:00am 23.0 23.9 17.5 71 3.4 WSW 9 11 5 6 1011.6 1011.6 0.0
22/03:30am 23.2 24.3 18.1 73 3.2 SW 9 15 5 8 1011.7 - 0.0
22/03:00am 23.1 24.6 18.8 77 2.7 WSW 9 9 5 5 1011.7 1011.7 0.0
22/02:30am 23.0 25.4 20.9 88 1.4 NNW 9 11 5 6 1011.7 - 0.0
22/02:00am 23.4 27.9 21.5 89 1.3 CALM 0 0 0 0 1011.9 1011.9 0.0
22/01:30am 23.3 27.0 19.9 81 2.2 CALM 0 0 0 0 1012.2 - 0.0
22/01:00am 23.9 28.3 21.4 86 1.6 CALM 0 0 0 0 1012.5 1012.5 0.0
22/12:30am 24.0 28.2 20.9 83 2.0 CALM 0 0 0 0 1012.7 - 0.0
22/12:00am 24.1 28.3 21.8 87 1.5 NNW 2 4 1 2 1012.9 1012.9 0.0
 
Date/Time
WST
Temp
°C
App
Temp
°C
Dew
Point
Rel
Hum
%
Delta-T
°C
Wind Press
QNH
hPa
Press
MSL
hPa
Rain
since 9 am
mm
Dir
 
Spd
km/h
Gust
km/h
Spd
kts
Gust
kts
21/11:30pm 24.6 28.5 22.5 88 1.4 NNW 6 6 3 3 1012.7 - 0.0
21/11:00pm 24.6 28.0 21.7 84 1.9 NNW 6 7 3 4 1012.9 1012.9 0.0
21/10:30pm 24.8 28.1 21.5 82 2.2 NNW 6 7 3 4 1012.9 - 0.0
21/10:00pm 25.1 28.7 22.0 83 2.1 NNW 6 7 3 4 1012.9 1012.9 0.0
21/09:30pm 25.2 28.5 21.5 80 2.5 NW 6 7 3 4 1012.8 - 0.0
21/09:00pm 25.8 29.3 21.9 79 2.6 NW 6 7 3 4 1012.6 1012.6 0.0
21/08:30pm 26.1 29.3 21.7 77 2.9 NW 7 9 4 5 1012.5 - 0.0
21/08:00pm 26.4 29.4 21.2 73 3.4 NW 7 7 4 4 1012.2 1012.2 0.0
21/07:30pm 27.1 30.1 20.9 69 4.1 WNW 6 7 3 4 1011.9 - 0.0
21/07:00pm 27.8 30.5 20.6 65 4.7 WNW 7 11 4 6 1011.6 1011.6 0.0
21/06:30pm 28.4 30.7 20.7 63 5.1 WNW 9 15 5 8 1011.2 - 0.0
21/06:00pm 29.6 29.9 17.8 49 7.5 WNW 13 19 7 10 1010.9 1010.9 0.0
21/05:30pm 30.5 29.5 17.6 46 8.2 NW 19 22 10 12 1010.7 - 0.0
21/05:00pm 31.8 30.5 15.7 37 10.0 WNW 17 22 9 12 1010.5 1010.5 0.0
21/04:30pm 31.8 30.4 16.9 40 9.4 NW 20 28 11 15 1010.3 - 0.0
21/04:00pm 33.0 30.5 13.6 31 11.8 NW 19 26 10 14 1010.0 1010.0 0.0
21/03:30pm 34.0 31.3 13.5 29 12.4 WNW 20 26 11 14 1010.0 - 0.0
21/03:00pm 34.7 31.5 11.2 24 13.8 WNW 19 26 10 14 1010.0 1010.0 0.0
21/02:30pm 34.6 32.1 14.0 29 12.6 NW 20 28 11 15 1010.0 - 0.0
21/02:00pm 35.6 32.4 11.9 24 14.2 WNW 20 26 11 14 1010.1 1010.1 0.0
21/01:30pm 36.5 32.3 7.5 17 16.3 WNW 19 24 10 13 1010.1 - 0.0

Other Formats:

Comma delimited format used in spreadsheet applications
http://www.bom.gov.au/fwo/IDW60801/IDW60801.94306.axf

JavaScript Object Notation format (JSON) in row-major order
http://www.bom.gov.au/fwo/IDW60801/IDW60801.94306.json